createdAt,value
2019-03-09T00:02:12.002Z,2.90
2019-03-09T00:04:38.552Z,1.22
2019-03-09T00:07:05.075Z,0.75
2019-03-09T00:09:31.610Z,3.92
2019-03-09T00:11:58.529Z,1.75
2019-03-09T00:14:25.165Z,1.27
2019-03-09T00:16:51.702Z,0.70
2019-03-09T00:19:18.250Z,0.68
2019-03-09T00:21:45.021Z,2.22
2019-03-09T00:24:22.359Z,0.78
2019-03-09T00:26:59.326Z,1.40
2019-03-09T00:29:28.811Z,0.90
2019-03-09T00:31:57.145Z,0.72
2019-03-09T00:34:23.459Z,0.85
2019-03-09T00:36:49.889Z,0.75
2019-03-09T00:39:16.785Z,1.07
2019-03-09T00:41:43.810Z,1.00
2019-03-09T00:44:10.681Z,2.20
2019-03-09T00:46:37.103Z,0.98
2019-03-09T00:49:03.550Z,1.10
2019-03-09T00:51:30.078Z,0.98
2019-03-09T00:53:57.225Z,2.58
2019-03-09T00:56:24.138Z,4.72
2019-03-09T00:58:50.563Z,2.83
2019-03-09T01:01:17.014Z,2.42
2019-03-09T01:03:43.330Z,1.30
2019-03-09T01:06:09.772Z,2.50
2019-03-09T01:08:36.547Z,1.00
2019-03-09T01:11:03.050Z,0.57
2019-03-09T01:13:29.710Z,1.50
2019-03-09T01:15:56.548Z,14.33
2019-03-09T01:18:23.200Z,0.82
2019-03-09T01:20:49.616Z,1.62
2019-03-09T01:23:16.226Z,2.05
2019-03-09T01:25:43.017Z,1.37
2019-03-09T01:28:09.604Z,1.22
2019-03-09T01:30:37.193Z,0.68
2019-03-09T01:33:03.809Z,1.40
2019-03-09T01:35:30.680Z,0.60
2019-03-09T01:37:57.117Z,0.20
2019-03-09T01:40:23.539Z,0.50
2019-03-09T01:42:50.353Z,0.82
2019-03-09T01:45:16.688Z,1.20
2019-03-09T01:47:43.116Z,0.50
2019-03-09T01:50:09.515Z,0.57
2019-03-09T01:52:36.426Z,0.42
2019-03-09T01:55:10.832Z,1.62
2019-03-09T01:57:37.370Z,2.83
2019-03-09T02:00:08.853Z,1.82
2019-03-09T02:02:35.302Z,3.52
2019-03-09T02:05:01.951Z,0.70
2019-03-09T02:07:28.373Z,0.72
2019-03-09T02:09:55.006Z,0.72
2019-03-09T02:12:21.308Z,1.87
2019-03-09T02:14:47.909Z,2.22
2019-03-09T02:17:14.364Z,2.55
2019-03-09T02:19:40.980Z,2.45
2019-03-09T02:22:07.860Z,2.55
2019-03-09T02:24:34.276Z,2.00
2019-03-09T02:27:00.894Z,1.25
2019-03-09T02:29:27.566Z,0.78
2019-03-09T02:31:54.124Z,0.57
2019-03-09T02:34:20.759Z,0.75
2019-03-09T02:36:47.479Z,1.27
2019-03-09T02:39:16.067Z,1.20
2019-03-09T02:41:42.912Z,0.65
2019-03-09T02:44:09.457Z,0.82
2019-03-09T02:46:36.197Z,1.82
2019-03-09T02:49:02.926Z,2.98
2019-03-09T02:51:29.230Z,1.25
2019-03-09T02:53:56.198Z,0.55
2019-03-09T02:56:22.747Z,2.05
2019-03-09T02:58:49.677Z,1.45
2019-03-09T03:01:27.142Z,1.65
2019-03-09T03:03:53.910Z,1.17
2019-03-09T03:06:20.431Z,0.85
2019-03-09T03:08:46.874Z,0.88
2019-03-09T03:11:13.718Z,0.45
2019-03-09T03:13:42.842Z,2.62
2019-03-09T03:16:09.662Z,1.98
2019-03-09T03:18:36.292Z,3.62
2019-03-09T03:21:02.848Z,0.88
2019-03-09T03:23:29.172Z,1.50
2019-03-09T03:25:55.706Z,2.17
2019-03-09T03:28:22.544Z,2.00
2019-03-09T03:30:49.318Z,1.65
2019-03-09T03:33:15.930Z,1.57
2019-03-09T03:35:42.347Z,0.42
2019-03-09T03:38:09.097Z,0.57
2019-03-09T03:40:36.156Z,1.80
2019-03-09T03:43:02.614Z,1.10
2019-03-09T03:45:28.913Z,0.98
2019-03-09T03:47:55.445Z,3.22
2019-03-09T03:50:21.977Z,0.53
2019-03-09T03:52:48.917Z,4.67
2019-03-09T03:55:15.869Z,1.47
2019-03-09T03:57:42.431Z,3.15
2019-03-09T04:00:13.675Z,1.12
2019-03-09T04:02:40.355Z,1.70
2019-03-09T04:05:07.025Z,2.05
2019-03-09T04:07:33.655Z,1.98
2019-03-09T04:10:00.474Z,0.93
2019-03-09T04:12:27.349Z,2.55
2019-03-09T04:14:53.883Z,1.12
2019-03-09T04:17:20.510Z,8.60
2019-03-09T04:19:47.034Z,5.30
2019-03-09T04:22:16.852Z,6.50
2019-03-09T04:24:49.732Z,6.90
2019-03-09T04:27:31.467Z,4.28
2019-03-09T04:30:11.817Z,5.65
2019-03-09T04:32:50.513Z,8.45
2019-03-09T04:35:32.728Z,23.90
2019-03-09T04:38:14.972Z,8.35
2019-03-09T04:40:47.311Z,9.73
2019-03-09T04:43:28.181Z,8.40
2019-03-09T04:46:07.106Z,8.73
2019-03-09T04:48:48.063Z,10.28
2019-03-09T04:51:26.455Z,5.15
2019-03-09T04:56:55.373Z,4.97
2019-03-09T04:59:35.315Z,4.12
2019-03-09T05:02:11.914Z,2.87
2019-03-09T05:04:47.157Z,2.98
2019-03-09T05:07:21.263Z,5.45
2019-03-09T05:09:58.611Z,3.40
2019-03-09T05:12:25.177Z,5.72
2019-03-09T05:14:51.677Z,4.70
2019-03-09T05:17:18.740Z,3.08
2019-03-09T05:19:45.343Z,1.27
2019-03-09T05:22:11.739Z,1.17
2019-03-09T05:24:38.426Z,3.27
2019-03-09T05:27:05.500Z,2.52
2019-03-09T05:29:32.224Z,1.52
2019-03-09T05:31:58.748Z,1.85
2019-03-09T05:34:25.217Z,1.07
2019-03-09T05:36:51.644Z,2.17
2019-03-09T05:39:18.927Z,3.67
2019-03-09T05:41:49.304Z,1.10
2019-03-09T05:44:16.467Z,1.20
2019-03-09T05:46:43.548Z,1.90
2019-03-09T05:49:10.673Z,0.93
2019-03-09T05:51:37.954Z,1.30
2019-03-09T05:54:04.494Z,0.93
2019-03-09T05:56:30.905Z,1.25
2019-03-09T05:58:58.677Z,2.08
2019-03-09T06:01:25.624Z,1.07
2019-03-09T06:03:52.145Z,2.62
2019-03-09T06:06:18.668Z,1.10
2019-03-09T06:08:45.176Z,1.40
2019-03-09T06:11:11.712Z,1.52
2019-03-09T06:13:38.581Z,4.87
2019-03-09T06:16:05.561Z,4.83
2019-03-09T06:18:32.080Z,3.72
2019-03-09T06:20:59.094Z,2.25
2019-03-09T06:23:25.651Z,5.20
2019-03-09T06:25:51.997Z,0.90
2019-03-09T06:28:18.529Z,1.82
2019-03-09T06:30:45.251Z,0.60
2019-03-09T06:33:22.357Z,1.27
2019-03-09T06:35:54.012Z,1.40
2019-03-09T06:38:33.373Z,1.65
2019-03-09T06:41:02.826Z,3.70
2019-03-09T06:43:27.914Z,0.30
2019-03-09T06:45:54.346Z,2.55
2019-03-09T06:48:20.659Z,1.85
2019-03-09T06:50:47.241Z,6.15
2019-03-09T06:53:13.659Z,0.78
2019-03-09T06:55:39.973Z,0.82
2019-03-09T06:58:06.407Z,0.62
2019-03-09T07:00:35.110Z,0.35
2019-03-09T07:03:01.781Z,1.95
2019-03-09T07:05:28.600Z,3.15
2019-03-09T07:07:55.141Z,1.15
2019-03-09T07:10:21.795Z,2.62
2019-03-09T07:12:48.122Z,1.87
2019-03-09T07:15:26.357Z,1.20
2019-03-09T07:17:55.106Z,2.55
2019-03-09T07:20:21.396Z,1.20
2019-03-09T07:22:47.727Z,0.40
2019-03-09T07:25:14.254Z,1.42
2019-03-09T07:27:40.583Z,3.47
2019-03-09T07:30:15.654Z,3.55
2019-03-09T07:32:41.965Z,0.65
2019-03-09T07:35:08.373Z,1.15
2019-03-09T07:37:37.038Z,0.40
2019-03-09T07:40:07.503Z,1.37
2019-03-09T07:42:33.961Z,1.35
2019-03-09T07:45:00.277Z,0.40
2019-03-09T07:47:27.185Z,0.60
2019-03-09T07:49:53.576Z,2.08
2019-03-09T07:52:37.081Z,1.37
2019-03-09T07:55:08.447Z,1.25
2019-03-09T07:57:37.801Z,0.68
2019-03-09T08:00:13.361Z,0.30
2019-03-09T08:02:39.771Z,0.72
2019-03-09T08:05:08.013Z,1.65
2019-03-09T08:07:34.677Z,1.87
2019-03-09T08:10:01.177Z,1.45
2019-03-09T08:12:27.502Z,2.37
2019-03-09T08:14:53.897Z,3.95
2019-03-09T08:17:20.332Z,1.22
2019-03-09T08:19:46.632Z,1.20
2019-03-09T08:22:13.038Z,0.68
2019-03-09T08:24:39.594Z,2.52
2019-03-09T08:27:05.862Z,0.80
2019-03-09T08:29:32.621Z,0.98
2019-03-09T08:31:59.028Z,0.98
2019-03-09T08:34:25.443Z,0.95
2019-03-09T08:36:51.869Z,1.12
2019-03-09T08:39:18.203Z,0.72
2019-03-09T08:41:44.651Z,1.62
2019-03-09T08:44:11.150Z,3.17
2019-03-09T08:46:37.820Z,0.37
2019-03-09T08:49:04.098Z,0.20
2019-03-09T08:51:30.384Z,0.65
2019-03-09T08:53:57.103Z,1.75
2019-03-09T08:56:23.525Z,1.35
2019-03-09T08:58:50.453Z,0.93
2019-03-09T09:01:17.159Z,0.78
2019-03-09T09:03:43.968Z,1.00
2019-03-09T09:06:10.504Z,0.80
2019-03-09T09:08:36.815Z,1.98
2019-03-09T09:11:03.314Z,2.35
2019-03-09T09:13:29.738Z,2.92
2019-03-09T09:15:57.582Z,1.05
2019-03-09T09:18:23.964Z,1.95
2019-03-09T09:20:50.385Z,2.77
2019-03-09T09:23:16.942Z,1.10
2019-03-09T09:25:43.893Z,1.57
2019-03-09T09:28:10.550Z,0.85
2019-03-09T09:30:37.101Z,3.95
2019-03-09T09:33:03.821Z,2.65
2019-03-09T09:35:30.228Z,0.30
2019-03-09T09:37:56.866Z,0.72
2019-03-09T09:40:25.784Z,1.47
2019-03-09T09:42:52.107Z,3.02
2019-03-09T09:45:18.622Z,0.62
2019-03-09T09:47:45.116Z,2.92
2019-03-09T09:50:13.541Z,2.62
2019-03-09T09:52:40.313Z,4.30
2019-03-09T09:55:09.122Z,2.22
2019-03-09T09:57:35.429Z,1.55
2019-03-09T10:00:03.738Z,2.45
2019-03-09T10:02:30.170Z,6.42
2019-03-09T10:04:56.685Z,5.35
2019-03-09T10:07:23.321Z,4.60
2019-03-09T10:09:49.733Z,8.30
2019-03-09T10:12:16.144Z,7.33
2019-03-09T10:14:42.562Z,3.55
2019-03-09T10:17:09.079Z,4.35
2019-03-09T10:19:35.538Z,2.30
2019-03-09T10:22:02.036Z,2.80
2019-03-09T10:24:28.579Z,1.90
2019-03-09T10:27:03.094Z,1.72
2019-03-09T10:29:29.340Z,2.42
2019-03-09T10:31:55.721Z,2.35
2019-03-09T10:34:22.141Z,5.47
2019-03-09T10:36:48.662Z,3.62
2019-03-09T10:39:15.195Z,2.60
2019-03-09T10:41:41.624Z,2.27
2019-03-09T10:44:08.266Z,2.92
2019-03-09T10:46:35.247Z,1.62
2019-03-09T10:49:01.756Z,2.72
2019-03-09T10:51:28.177Z,2.62
2019-03-09T10:53:54.828Z,3.67
2019-03-09T10:56:22.146Z,2.72
2019-03-09T10:58:48.642Z,3.95
2019-03-09T11:01:15.266Z,1.07
2019-03-09T11:03:41.926Z,2.87
2019-03-09T11:06:08.443Z,1.62
2019-03-09T11:08:36.040Z,0.93
2019-03-09T11:11:08.980Z,1.95
2019-03-09T11:13:51.515Z,0.57
2019-03-09T11:16:19.899Z,1.25
2019-03-09T11:18:53.455Z,0.75
2019-03-09T11:21:27.452Z,1.77
2019-03-09T11:24:00.626Z,2.50
2019-03-09T11:26:34.353Z,0.30
2019-03-09T11:29:04.931Z,0.50
2019-03-09T11:31:36.575Z,0.72
2019-03-09T11:34:09.345Z,0.80
2019-03-09T11:36:45.331Z,1.45
2019-03-09T11:39:13.260Z,1.12
2019-03-09T11:41:39.902Z,8.08
2019-03-09T11:44:06.325Z,19.60
2019-03-09T11:46:32.833Z,23.15
2019-03-09T11:48:59.371Z,16.15
2019-03-09T11:51:25.702Z,18.45
2019-03-09T11:53:52.327Z,18.60
2019-03-09T11:56:18.859Z,9.68
2019-03-09T11:58:45.276Z,5.12
2019-03-09T12:01:11.673Z,6.62
2019-03-09T12:03:38.109Z,10.35
2019-03-09T12:06:04.527Z,4.28
2019-03-09T12:08:30.813Z,2.55
2019-03-09T12:10:57.325Z,5.45
2019-03-09T12:13:23.738Z,4.05
2019-03-09T12:15:50.293Z,2.15
2019-03-09T12:18:16.594Z,2.60
2019-03-09T12:20:43.003Z,5.33
2019-03-09T12:23:18.053Z,1.60
2019-03-09T12:25:44.468Z,2.77
2019-03-09T12:28:11.005Z,1.57
2019-03-09T12:30:37.514Z,4.20
2019-03-09T12:33:04.226Z,4.30
2019-03-09T12:35:30.529Z,1.65
2019-03-09T12:37:56.953Z,1.35
2019-03-09T12:40:23.610Z,2.02
2019-03-09T12:42:49.922Z,1.00
2019-03-09T12:45:16.457Z,1.25
2019-03-09T12:47:42.877Z,1.37
2019-03-09T12:50:12.122Z,1.35
2019-03-09T12:52:38.562Z,0.53
2019-03-09T12:55:05.084Z,0.50
2019-03-09T12:57:31.713Z,0.90
2019-03-09T12:59:58.253Z,0.20
2019-03-09T13:02:24.893Z,1.20
2019-03-09T13:04:51.227Z,0.57
2019-03-09T13:07:17.752Z,0.65
2019-03-09T13:09:44.610Z,1.07
2019-03-09T13:12:11.644Z,1.25
2019-03-09T13:14:38.181Z,0.57
2019-03-09T13:17:04.650Z,0.60
2019-03-09T13:19:31.270Z,0.57
2019-03-09T13:21:57.918Z,0.13
2019-03-09T13:24:24.466Z,0.30
2019-03-09T13:26:51.391Z,0.30
2019-03-09T13:29:18.338Z,0.10
2019-03-09T13:31:45.170Z,0.30
2019-03-09T13:34:11.825Z,1.22
2019-03-09T13:36:38.457Z,0.40
2019-03-09T13:39:05.207Z,0.88
2019-03-09T13:41:33.088Z,0.20
2019-03-09T13:43:59.667Z,4.87
2019-03-09T13:46:25.974Z,0.88
2019-03-09T13:48:52.515Z,2.90
2019-03-09T13:51:19.866Z,2.52
2019-03-09T13:53:46.411Z,2.15
2019-03-09T13:56:12.933Z,1.75
2019-03-09T13:58:45.186Z,5.80
2019-03-09T14:01:17.855Z,6.95
2019-03-09T14:03:54.163Z,1.75
2019-03-09T14:06:26.543Z,5.12
2019-03-09T14:08:57.644Z,5.03
2019-03-09T14:11:31.367Z,4.47
2019-03-09T14:14:04.266Z,0.85
2019-03-09T14:16:36.411Z,0.28
2019-03-09T14:19:08.882Z,1.80
2019-03-09T14:21:43.122Z,1.15
2019-03-09T14:24:09.759Z,1.65
2019-03-09T14:26:36.451Z,0.57
2019-03-09T14:29:03.137Z,0.40
2019-03-09T14:31:30.050Z,0.30
2019-03-09T14:33:56.504Z,0.37
2019-03-09T14:36:23.124Z,1.37
2019-03-09T14:38:49.762Z,0.55
2019-03-09T14:41:16.325Z,2.33
2019-03-09T14:43:42.834Z,0.00
2019-03-09T14:46:09.172Z,0.85
2019-03-09T14:48:35.593Z,2.22
2019-03-09T14:51:02.143Z,0.42
2019-03-09T14:53:28.781Z,0.40
2019-03-09T14:55:55.199Z,0.45
2019-03-09T14:58:21.626Z,0.42
2019-03-09T15:00:47.925Z,0.40
2019-03-09T15:03:14.408Z,0.15
2019-03-09T15:05:40.830Z,0.62
2019-03-09T15:08:07.340Z,0.55
2019-03-09T15:10:33.670Z,0.57
2019-03-09T15:12:59.962Z,0.30
2019-03-09T15:15:26.270Z,0.42
2019-03-09T15:17:52.694Z,0.40
2019-03-09T15:20:19.214Z,0.10
2019-03-09T15:22:45.654Z,0.20
2019-03-09T15:25:18.775Z,2.65
2019-03-09T15:27:45.095Z,2.05
2019-03-09T15:30:16.149Z,0.95
2019-03-09T15:32:42.565Z,0.13
2019-03-09T15:35:10.094Z,0.35
2019-03-09T15:37:36.506Z,0.05
2019-03-09T15:40:05.710Z,0.03
2019-03-09T15:42:32.073Z,0.35
2019-03-09T15:44:58.656Z,2.08
2019-03-09T15:47:25.415Z,0.93
2019-03-09T15:49:52.043Z,0.00
2019-03-09T15:52:18.554Z,0.35
2019-03-09T15:54:44.867Z,0.20
2019-03-09T15:57:11.361Z,4.55
2019-03-09T15:59:37.689Z,0.57
2019-03-09T16:02:08.180Z,0.78
2019-03-09T16:04:34.714Z,1.95
2019-03-09T16:07:06.057Z,0.05
2019-03-09T16:09:32.597Z,0.42
2019-03-09T16:11:59.245Z,0.28
2019-03-09T16:14:25.646Z,0.17
2019-03-09T16:16:52.338Z,1.40
2019-03-09T16:19:19.726Z,0.68
2019-03-09T16:21:46.350Z,3.20
2019-03-09T16:24:12.882Z,2.22
2019-03-09T16:26:39.304Z,4.53
2019-03-09T16:29:05.755Z,0.20
2019-03-09T16:31:32.077Z,1.98
2019-03-09T16:33:58.489Z,0.10
2019-03-09T16:36:26.591Z,2.83
2019-03-09T16:38:53.163Z,0.40
2019-03-09T16:41:19.818Z,0.90
2019-03-09T16:43:46.829Z,1.85
2019-03-09T16:46:13.345Z,0.37
2019-03-09T16:48:40.057Z,0.10
2019-03-09T16:51:06.687Z,0.10
2019-03-09T16:53:33.366Z,0.33
2019-03-09T16:56:00.265Z,0.30
2019-03-09T16:58:26.886Z,0.45
2019-03-09T17:00:53.830Z,23.55
2019-03-09T17:03:20.458Z,9.93
2019-03-09T17:05:47.168Z,3.37
2019-03-09T17:08:14.053Z,9.75
2019-03-09T17:10:40.707Z,8.98
2019-03-09T17:13:07.413Z,5.58
2019-03-09T17:15:34.069Z,3.60
2019-03-09T17:18:00.737Z,4.70
2019-03-09T17:20:27.274Z,13.70
2019-03-09T17:22:53.924Z,18.87
2019-03-09T17:25:20.721Z,9.65
2019-03-09T17:27:47.707Z,12.20
2019-03-09T17:30:17.914Z,11.33
2019-03-09T17:32:44.560Z,7.37
2019-03-09T17:35:11.235Z,7.78
2019-03-09T17:37:37.845Z,7.70
2019-03-09T17:40:06.221Z,8.78
2019-03-09T17:42:32.907Z,5.58
2019-03-09T17:44:59.562Z,5.90
2019-03-09T17:47:26.199Z,3.30
2019-03-09T17:49:52.854Z,3.37
2019-03-09T17:52:19.661Z,5.15
2019-03-09T17:54:46.306Z,3.55
2019-03-09T17:57:12.941Z,2.20
2019-03-09T17:59:41.055Z,1.00
2019-03-09T18:02:07.697Z,3.37
2019-03-09T18:04:34.362Z,2.20
2019-03-09T18:07:01.113Z,2.12
2019-03-09T18:09:27.730Z,1.05
2019-03-09T18:11:54.432Z,3.02
2019-03-09T18:14:21.050Z,4.00
2019-03-09T18:16:52.752Z,1.12
2019-03-09T18:19:17.096Z,0.72
2019-03-09T18:21:44.400Z,0.72
2019-03-09T18:24:11.351Z,0.93
2019-03-09T18:26:37.974Z,1.05
2019-03-09T18:29:04.640Z,0.75
2019-03-09T18:31:31.291Z,0.30
2019-03-09T18:33:57.634Z,0.98
2019-03-09T18:36:24.266Z,2.00
2019-03-09T18:38:50.687Z,1.07
2019-03-09T18:41:17.001Z,3.35
2019-03-09T18:43:43.682Z,4.47
2019-03-09T18:46:10.124Z,1.82
2019-03-09T18:48:36.590Z,6.55
2019-03-09T18:51:03.109Z,3.98
2019-03-09T18:53:29.692Z,4.50
2019-03-09T18:55:59.513Z,6.37
2019-03-09T18:58:25.087Z,7.80
2019-03-09T19:00:51.530Z,4.42
2019-03-09T19:03:18.422Z,4.45
2019-03-09T19:05:45.000Z,8.65
2019-03-09T19:08:11.838Z,3.55
2019-03-09T19:10:38.647Z,3.50
2019-03-09T19:13:05.299Z,2.92
2019-03-09T19:15:32.561Z,3.05
2019-03-09T19:18:00.201Z,5.92
2019-03-09T19:20:27.031Z,3.67
2019-03-09T19:22:53.657Z,1.37
2019-03-09T19:25:20.319Z,3.85
2019-03-09T19:27:47.461Z,2.80
2019-03-09T19:30:23.009Z,1.02
2019-03-09T19:32:59.673Z,1.27
2019-03-09T19:35:18.639Z,2.25
2019-03-09T19:37:45.082Z,1.70
2019-03-09T19:40:16.187Z,1.10
2019-03-09T19:42:42.857Z,2.83
2019-03-09T19:45:11.757Z,0.72
2019-03-09T19:47:38.760Z,1.92
2019-03-09T19:50:12.004Z,4.95
2019-03-09T19:52:38.552Z,1.62
2019-03-09T19:55:06.163Z,3.27
2019-03-09T19:57:32.785Z,3.70
2019-03-09T20:00:00.331Z,1.35
2019-03-09T20:02:27.675Z,3.50
2019-03-09T20:04:54.103Z,5.05
2019-03-09T20:07:20.758Z,1.95
2019-03-09T20:09:49.046Z,1.47
2019-03-09T20:12:16.107Z,1.82
2019-03-09T20:14:44.534Z,2.15
2019-03-09T20:17:11.689Z,2.87
2019-03-09T20:19:38.343Z,2.87
2019-03-09T20:22:05.033Z,1.85
2019-03-09T20:24:31.569Z,4.95
2019-03-09T20:26:58.133Z,3.87
2019-03-09T20:29:24.600Z,4.40
2019-03-09T20:31:51.021Z,4.17
2019-03-09T20:34:17.402Z,4.92
2019-03-09T20:36:44.088Z,3.00
2019-03-09T20:39:10.702Z,5.35
2019-03-09T20:41:37.448Z,1.47
2019-03-09T20:44:04.698Z,2.75
2019-03-09T20:46:41.518Z,1.25
2019-03-09T20:48:59.232Z,3.37
2019-03-09T20:51:25.676Z,11.88
2019-03-09T20:53:51.952Z,9.48
2019-03-09T20:56:18.419Z,2.72
2019-03-09T20:58:44.922Z,11.57
2019-03-09T21:01:11.460Z,1.65
2019-03-09T21:03:37.957Z,2.42
2019-03-09T21:06:04.606Z,2.20
2019-03-09T21:08:31.258Z,1.50
2019-03-09T21:11:03.918Z,2.02
2019-03-09T21:13:26.012Z,0.70
2019-03-09T21:15:52.634Z,9.73
2019-03-09T21:18:19.276Z,3.15
2019-03-09T21:20:46.084Z,15.95
2019-03-09T21:23:12.556Z,4.20
2019-03-09T21:25:39.099Z,9.03
2019-03-09T21:28:05.751Z,4.30
2019-03-09T21:30:32.535Z,8.43
2019-03-09T21:32:59.377Z,6.92
2019-03-09T21:35:26.525Z,3.75
2019-03-09T21:37:53.368Z,3.70
2019-03-09T21:40:20.217Z,2.67
2019-03-09T21:42:47.132Z,2.95
2019-03-09T21:45:14.391Z,2.50
2019-03-09T21:47:41.416Z,6.03
2019-03-09T21:50:10.469Z,4.50
2019-03-09T21:52:37.022Z,2.75
2019-03-09T21:55:06.040Z,3.35
2019-03-09T21:57:32.689Z,5.20
2019-03-09T21:59:59.030Z,2.92
2019-03-09T22:02:25.443Z,2.87
2019-03-09T22:04:51.860Z,2.47
2019-03-09T22:07:18.297Z,2.75
2019-03-09T22:09:44.731Z,3.27
2019-03-09T22:12:11.251Z,2.85
2019-03-09T22:14:37.682Z,2.75
2019-03-09T22:17:04.386Z,2.08
2019-03-09T22:19:30.838Z,1.62
2019-03-09T22:21:57.143Z,1.55
2019-03-09T22:24:23.487Z,2.08
2019-03-09T22:26:50.029Z,0.78
2019-03-09T22:29:16.551Z,1.87
2019-03-09T22:31:43.040Z,1.98
2019-03-09T22:34:09.582Z,2.17
2019-03-09T22:36:35.879Z,0.70
2019-03-09T22:39:02.425Z,2.30
2019-03-09T22:41:28.722Z,0.55
2019-03-09T22:43:55.171Z,0.95
2019-03-09T22:46:21.573Z,0.93
2019-03-09T22:48:48.091Z,0.70
2019-03-09T22:51:14.784Z,0.25
2019-03-09T22:53:41.087Z,1.32
2019-03-09T22:56:07.521Z,1.32
2019-03-09T22:58:33.953Z,0.55
2019-03-09T23:01:00.349Z,0.47
2019-03-09T23:03:26.692Z,1.30
2019-03-09T23:05:52.969Z,2.00
2019-03-09T23:08:19.293Z,1.67
2019-03-09T23:10:45.604Z,3.47
2019-03-09T23:13:12.023Z,0.75
2019-03-09T23:15:38.572Z,1.05
2019-03-09T23:18:05.080Z,1.45
2019-03-09T23:20:31.780Z,0.65
2019-03-09T23:22:58.283Z,0.98
2019-03-09T23:25:24.798Z,1.92
2019-03-09T23:27:51.230Z,1.20
2019-03-09T23:30:18.962Z,0.70
2019-03-09T23:32:45.413Z,0.70
2019-03-09T23:35:12.039Z,0.42
2019-03-09T23:37:38.355Z,0.75
2019-03-09T23:40:08.010Z,0.57
2019-03-09T23:42:34.434Z,0.30
2019-03-09T23:45:00.994Z,1.40
2019-03-09T23:47:27.403Z,2.47
2019-03-09T23:49:54.030Z,0.33
2019-03-09T23:52:20.357Z,0.85
2019-03-09T23:54:46.668Z,0.78
2019-03-09T23:57:13.015Z,2.25
2019-03-09T23:59:39.311Z,0.13
